createdAt,value
2022-11-14T06:00:19.734Z,4.10
2022-11-14T06:02:48.523Z,4.10
2022-11-14T06:05:17.198Z,4.12
2022-11-14T06:07:47.397Z,4.20
2022-11-14T06:10:16.432Z,4.20
2022-11-14T06:12:45.002Z,4.20
2022-11-14T06:15:13.836Z,4.20
2022-11-14T06:17:42.563Z,4.20
2022-11-14T06:20:13.605Z,4.28
2022-11-14T06:22:42.893Z,4.30
2022-11-14T06:25:11.543Z,4.30
2022-11-14T06:27:40.119Z,4.20
2022-11-14T06:30:09.701Z,4.20
2022-11-14T06:32:38.352Z,4.20
2022-11-14T06:35:08.711Z,4.20
2022-11-14T06:37:37.729Z,4.20
2022-11-14T06:40:07.526Z,4.20
2022-11-14T06:42:36.291Z,4.20
2022-11-14T06:45:05.432Z,4.20
2022-11-14T06:47:34.231Z,4.20
2022-11-14T06:50:02.931Z,4.30
2022-11-14T06:52:31.916Z,4.30
2022-11-14T06:55:00.570Z,4.30
2022-11-14T06:57:30.741Z,4.30
2022-11-14T07:00:00.494Z,4.32
2022-11-14T07:02:29.692Z,4.40
2022-11-14T07:04:58.852Z,4.30
2022-11-14T07:07:28.827Z,4.32
2022-11-14T07:09:59.169Z,4.40
2022-11-14T07:12:29.498Z,4.40
2022-11-14T07:14:58.256Z,4.40
2022-11-14T07:17:30.980Z,4.50
2022-11-14T07:20:00.201Z,4.50
2022-11-14T07:22:28.887Z,4.60
2022-11-14T07:24:57.687Z,4.60
2022-11-14T07:27:26.408Z,4.70
2022-11-14T07:29:55.072Z,4.70
2022-11-14T07:32:24.795Z,4.76
2022-11-14T07:34:57.872Z,4.80
2022-11-14T07:37:30.718Z,4.80
2022-11-14T07:39:59.573Z,4.80
2022-11-14T07:42:30.250Z,4.80
2022-11-14T07:44:58.890Z,4.82
2022-11-14T07:47:27.533Z,4.90
2022-11-14T07:49:56.385Z,4.90
2022-11-14T07:52:25.022Z,4.90
2022-11-14T07:54:53.798Z,4.90
2022-11-14T07:57:22.573Z,4.80
2022-11-14T07:59:51.271Z,4.70
2022-11-14T08:02:20.030Z,4.60
2022-11-14T08:04:48.711Z,4.60
2022-11-14T08:07:17.541Z,4.60
2022-11-14T08:09:46.291Z,4.70
2022-11-14T08:12:14.909Z,4.70
2022-11-14T08:14:43.590Z,4.70
2022-11-14T08:17:12.219Z,4.70
2022-11-14T08:19:40.833Z,4.70
2022-11-14T08:22:09.429Z,4.70
2022-11-14T08:24:38.057Z,4.70
2022-11-14T08:27:06.693Z,4.70
2022-11-14T08:29:35.340Z,4.70
2022-11-14T08:32:04.012Z,4.80
2022-11-14T08:34:32.741Z,4.80
2022-11-14T08:37:02.109Z,4.90
2022-11-14T08:39:30.742Z,4.90
2022-11-14T08:41:59.331Z,5.00
2022-11-14T08:44:27.971Z,5.10
2022-11-14T08:46:56.733Z,5.18
2022-11-14T08:49:25.371Z,5.20
2022-11-14T08:51:54.210Z,5.20
2022-11-14T08:54:22.810Z,5.20
2022-11-14T08:56:51.593Z,5.20
2022-11-14T08:59:20.250Z,5.20
2022-11-14T09:01:48.878Z,5.20
2022-11-14T09:04:17.708Z,5.20
2022-11-14T09:06:46.741Z,5.30
2022-11-14T09:09:16.190Z,5.30
2022-11-14T09:11:44.898Z,5.30
2022-11-14T09:14:13.590Z,5.40
2022-11-14T09:16:42.150Z,5.48
2022-11-14T09:19:10.832Z,5.42
2022-11-14T09:21:39.589Z,5.50
2022-11-14T09:24:08.370Z,5.50
2022-11-14T09:26:37.009Z,5.60
2022-11-14T09:29:06.769Z,5.60
2022-11-14T09:31:35.773Z,5.60
2022-11-14T09:34:05.019Z,5.74
2022-11-14T09:36:36.670Z,5.80
2022-11-14T09:39:06.963Z,5.80
2022-11-14T09:42:01.530Z,5.80
2022-11-14T09:44:48.828Z,5.80
2022-11-14T09:47:25.153Z,5.80
2022-11-14T09:50:02.347Z,5.80
2022-11-14T09:52:47.983Z,5.80
2022-11-14T09:55:36.299Z,5.90
2022-11-14T09:58:13.691Z,5.96
2022-11-14T10:00:58.811Z,6.04
2022-11-14T10:03:43.503Z,6.16
2022-11-14T10:07:03.444Z,6.22
2022-11-14T10:10:01.968Z,6.30
2022-11-14T10:13:23.710Z,6.28
2022-11-14T10:16:21.843Z,6.30
2022-11-14T10:19:32.670Z,6.30
2022-11-14T10:22:37.774Z,6.40
2022-11-14T10:25:26.173Z,6.40
2022-11-14T10:28:06.797Z,6.40
2022-11-14T10:31:00.110Z,6.50
2022-11-14T10:34:17.703Z,6.60
2022-11-14T10:37:37.730Z,6.70
2022-11-14T10:40:23.172Z,6.90
2022-11-14T10:43:06.451Z,6.98
2022-11-14T10:46:09.712Z,7.16
2022-11-14T10:48:47.756Z,7.40
2022-11-14T10:51:37.011Z,7.40
2022-11-14T10:54:18.469Z,7.40
2022-11-14T10:56:52.699Z,7.30
2022-11-14T10:59:22.671Z,7.20
2022-11-14T11:01:51.151Z,7.10
2022-11-14T11:04:28.105Z,7.04
2022-11-14T11:07:41.669Z,6.90
2022-11-14T11:10:42.983Z,6.90
2022-11-14T11:13:31.432Z,6.90
2022-11-14T11:16:03.302Z,6.90
2022-11-14T11:18:37.051Z,6.98
2022-11-14T11:21:18.721Z,7.00
2022-11-14T11:23:57.252Z,7.10
2022-11-14T11:26:32.038Z,7.10
2022-11-14T11:29:15.379Z,7.18
2022-11-14T11:31:56.430Z,7.20
2022-11-14T11:34:28.970Z,7.20
2022-11-14T11:37:09.701Z,7.20
2022-11-14T11:39:51.390Z,7.28
2022-11-14T11:43:23.644Z,7.30
2022-11-14T11:45:24.674Z,7.50
2022-11-14T11:48:15.370Z,7.66
2022-11-14T11:50:44.245Z,7.84
2022-11-14T11:53:34.892Z,8.00
2022-11-14T11:56:19.750Z,8.10
2022-11-14T11:58:52.449Z,8.20
2022-11-14T12:01:21.219Z,8.20
2022-11-14T12:03:54.612Z,8.30
2022-11-14T12:06:29.031Z,8.30
2022-11-14T12:09:17.218Z,8.30
2022-11-14T12:12:04.134Z,8.40
2022-11-14T12:15:06.692Z,8.42
2022-11-14T12:17:50.370Z,8.50
2022-11-14T12:20:39.696Z,8.54
2022-11-14T12:23:49.835Z,8.60
2022-11-14T12:27:11.645Z,8.60
2022-11-14T12:30:11.149Z,8.60
2022-11-14T12:33:03.750Z,8.70
2022-11-14T12:35:36.789Z,8.70
2022-11-14T12:38:16.310Z,8.80
2022-11-14T12:40:58.426Z,8.82
2022-11-14T12:43:40.462Z,8.90
2022-11-14T12:46:13.378Z,8.90
2022-11-14T12:48:44.390Z,8.96
2022-11-14T12:51:28.268Z,9.00
2022-11-14T12:53:58.691Z,9.10
2022-11-14T12:56:33.090Z,9.10
2022-11-14T12:59:33.790Z,9.20
2022-11-14T13:02:18.055Z,9.22
2022-11-14T13:05:20.662Z,9.30
2022-11-14T13:08:13.660Z,9.40
2022-11-14T13:10:42.390Z,9.40
2022-11-14T13:13:35.185Z,9.50
2022-11-14T13:16:23.550Z,9.50
2022-11-14T13:19:30.712Z,9.50
2022-11-14T13:22:14.872Z,9.60
2022-11-14T13:25:01.662Z,9.60
2022-11-14T13:28:05.241Z,9.70
2022-11-14T13:31:17.276Z,9.70
2022-11-14T13:33:53.842Z,9.70
2022-11-14T13:36:36.231Z,9.70
2022-11-14T13:39:13.666Z,9.74
2022-11-14T13:41:57.913Z,9.80
2022-11-14T13:45:10.433Z,9.80
2022-11-14T13:47:54.250Z,9.80
2022-11-14T13:50:32.350Z,9.80
2022-11-14T13:53:01.510Z,9.80
2022-11-14T13:56:04.800Z,9.80
2022-11-14T13:58:51.112Z,9.80
2022-11-14T14:01:35.113Z,9.80
2022-11-14T14:04:30.511Z,9.80
2022-11-14T14:07:19.324Z,9.80
2022-11-14T14:10:28.001Z,9.80
2022-11-14T14:13:28.542Z,9.72
2022-11-14T15:13:28.036Z,8.50
2022-11-14T15:15:58.799Z,8.50
2022-11-14T15:18:33.721Z,8.40
2022-11-14T15:21:25.896Z,8.40
2022-11-14T15:24:13.557Z,8.30
2022-11-14T17:14:18.524Z,7.38
2022-11-14T17:16:47.444Z,7.30
2022-11-14T17:19:15.982Z,7.30
2022-11-14T17:21:45.043Z,7.30
2022-11-14T17:24:13.662Z,7.20
2022-11-14T17:26:43.004Z,7.20
2022-11-14T17:29:13.264Z,7.10
2022-11-14T17:31:46.732Z,7.10
2022-11-14T17:34:15.864Z,7.10
2022-11-14T17:36:44.966Z,7.10
2022-11-14T17:39:13.623Z,7.10
2022-11-14T17:41:42.194Z,7.10
2022-11-14T17:44:11.404Z,7.10
2022-11-14T17:46:40.082Z,7.10
2022-11-14T17:49:08.705Z,7.10
2022-11-14T17:51:37.302Z,7.10
2022-11-14T17:54:06.564Z,7.10
2022-11-14T17:56:35.263Z,7.10
2022-11-14T17:59:04.006Z,7.10
2022-11-14T18:01:32.838Z,7.10
2022-11-14T18:04:05.728Z,7.10
2022-11-14T18:06:34.764Z,7.10
2022-11-14T18:09:05.422Z,7.10
2022-11-14T18:11:35.484Z,7.00
2022-11-14T18:14:04.123Z,7.00
2022-11-14T18:16:57.601Z,6.90
2022-11-14T18:19:21.403Z,6.90
2022-11-14T18:21:53.507Z,6.88
2022-11-14T18:24:24.142Z,6.82
2022-11-14T18:26:53.983Z,6.80
2022-11-14T18:29:22.604Z,6.80
2022-11-14T18:31:51.562Z,6.80
2022-11-14T18:34:20.323Z,6.78
2022-11-14T18:36:49.063Z,6.72
2022-11-14T18:39:18.604Z,6.76
2022-11-14T18:41:47.302Z,6.70
2022-11-14T18:44:16.008Z,6.70
2022-11-14T18:46:44.782Z,6.62
2022-11-14T18:49:13.346Z,6.60
2022-11-14T18:51:45.114Z,6.60
2022-11-14T18:54:19.210Z,6.42
2022-11-14T18:56:48.385Z,6.30
2022-11-14T18:59:18.182Z,6.30
2022-11-14T19:01:46.822Z,6.20
2022-11-14T19:04:17.745Z,6.20
2022-11-14T19:06:46.571Z,6.00
2022-11-14T19:09:18.541Z,5.96
2022-11-14T19:12:05.693Z,6.00
2022-11-14T19:14:34.481Z,6.00
2022-11-14T19:17:05.043Z,6.00
2022-11-14T19:19:34.343Z,6.00
2022-11-14T19:22:04.302Z,6.10
2022-11-14T19:24:33.323Z,6.10
2022-11-14T19:27:02.127Z,6.00
2022-11-14T19:29:31.202Z,6.00
2022-11-14T19:31:59.845Z,5.90
2022-11-14T19:34:28.494Z,6.00
2022-11-14T19:37:00.364Z,6.00
2022-11-14T19:39:30.421Z,6.00
2022-11-14T19:41:59.202Z,6.00
2022-11-14T19:44:27.788Z,5.96
2022-11-14T19:46:56.364Z,5.98
2022-11-14T19:49:25.105Z,5.98
2022-11-14T19:51:53.702Z,6.00
2022-11-14T19:54:22.281Z,6.00
2022-11-14T19:56:50.934Z,5.98
2022-11-14T19:59:24.122Z,5.90
2022-11-14T20:01:55.778Z,5.90
2022-11-14T20:04:27.603Z,5.80
2022-11-14T20:06:56.298Z,5.80
2022-11-14T20:09:24.963Z,5.70
2022-11-14T20:11:53.616Z,5.60
2022-11-14T20:14:22.244Z,5.50
2022-11-14T20:16:51.086Z,5.40
2022-11-14T20:19:19.728Z,5.40
2022-11-14T20:21:50.007Z,5.30
2022-11-14T20:24:22.927Z,5.40
2022-11-14T20:26:52.842Z,5.40
2022-11-14T20:29:22.267Z,5.30
2022-11-14T20:31:51.775Z,5.20
2022-11-14T20:34:21.699Z,5.02
2022-11-14T20:39:40.324Z,5.10
2022-11-14T20:42:09.284Z,5.00
2022-11-14T20:44:38.413Z,4.90
2022-11-14T20:47:10.773Z,4.80
2022-11-14T20:49:39.735Z,4.70
2022-11-14T20:52:08.501Z,4.70
2022-11-14T20:54:37.264Z,4.70
2022-11-14T20:57:06.003Z,4.60
2022-11-14T20:59:34.613Z,4.50
2022-11-14T21:02:03.421Z,4.50
2022-11-14T21:04:32.102Z,4.60
2022-11-14T21:07:00.749Z,4.70
2022-11-14T21:09:29.860Z,4.70
2022-11-14T21:11:58.442Z,4.76
2022-11-14T21:14:27.301Z,4.70
2022-11-14T21:16:55.943Z,4.80
2022-11-14T21:19:24.743Z,4.80
2022-11-14T21:21:53.362Z,4.82
2022-11-14T21:24:22.002Z,4.90
2022-11-14T21:26:50.764Z,5.00
2022-11-14T21:29:19.341Z,5.00
2022-11-14T21:31:48.082Z,5.10
2022-11-14T21:34:18.432Z,5.14
2022-11-14T21:36:48.699Z,5.10
2022-11-14T21:39:17.868Z,5.10
2022-11-14T21:41:48.670Z,5.00
2022-11-14T21:44:18.422Z,4.92
2022-11-14T21:46:48.884Z,4.92
2022-11-14T21:49:17.618Z,4.90
2022-11-14T21:51:46.241Z,4.90
2022-11-14T21:54:14.985Z,4.94
2022-11-14T21:56:43.483Z,4.92
2022-11-14T21:59:18.828Z,4.94
2022-11-14T22:02:10.856Z,4.90
2022-11-14T22:04:39.582Z,4.90
2022-11-14T22:07:09.264Z,4.80
2022-11-14T22:09:42.513Z,4.82
2022-11-14T22:12:13.621Z,4.90
2022-11-14T22:14:42.202Z,4.90
2022-11-14T22:17:10.702Z,4.90
2022-11-14T22:19:39.402Z,4.90
2022-11-14T22:22:08.365Z,4.90
2022-11-14T22:24:37.226Z,4.90
2022-11-14T22:27:05.804Z,4.90
2022-11-14T22:29:34.364Z,5.00
2022-11-14T22:32:02.864Z,5.00
2022-11-14T22:34:31.342Z,5.00
2022-11-14T22:36:59.922Z,5.00
2022-11-14T22:39:28.481Z,5.00
2022-11-14T22:41:57.222Z,5.00
2022-11-14T22:44:26.081Z,5.00
2022-11-14T22:46:54.639Z,5.00
2022-11-14T22:49:23.203Z,4.96
2022-11-14T22:51:51.781Z,4.90
2022-11-14T22:54:20.624Z,4.90
2022-11-14T22:56:49.144Z,4.90
2022-11-14T22:59:22.401Z,4.90
2022-11-14T23:01:52.623Z,4.90
2022-11-14T23:04:23.447Z,4.90
2022-11-14T23:06:53.272Z,4.88
2022-11-14T23:09:24.704Z,4.88
2022-11-14T23:11:54.042Z,4.88
2022-11-14T23:14:23.833Z,4.88
2022-11-14T23:16:53.402Z,4.86
2022-11-14T23:19:23.184Z,4.80
2022-11-14T23:21:54.902Z,4.80
2022-11-14T23:24:24.446Z,4.80
2022-11-14T23:26:55.193Z,4.78
2022-11-14T23:29:25.174Z,4.70
2022-11-14T23:31:55.594Z,4.70
2022-11-14T23:34:25.480Z,4.70
2022-11-14T23:36:55.175Z,4.70
2022-11-14T23:39:24.743Z,4.68
2022-11-14T23:41:54.331Z,4.70
2022-11-14T23:44:23.718Z,4.70
2022-11-14T23:46:53.263Z,4.70
2022-11-14T23:49:22.722Z,4.70
2022-11-14T23:51:52.115Z,4.60
2022-11-14T23:54:21.627Z,4.60
2022-11-14T23:56:50.829Z,4.60
2022-11-14T23:59:20.348Z,4.60
